createdAt,value
2016-03-30T00:00:16.495Z,85
2016-03-30T00:00:25.573Z,85
2016-03-30T00:00:41.732Z,85
2016-03-30T00:00:50.920Z,85
2016-03-30T00:01:07.607Z,85
2016-03-30T00:01:17.107Z,85
2016-03-30T00:01:33.454Z,85
2016-03-30T00:01:42.735Z,85
2016-03-30T00:02:01.173Z,85
2016-03-30T00:02:10.392Z,85
2016-03-30T00:02:20.079Z,85
2016-03-30T00:02:36.456Z,85
2016-03-30T00:02:46.034Z,85
2016-03-30T00:02:55.034Z,85
2016-03-30T00:03:04.081Z,85
2016-03-30T00:03:20.722Z,85
2016-03-30T00:03:30.006Z,85
2016-03-30T00:03:38.943Z,85
2016-03-30T00:03:48.475Z,84
2016-03-30T00:03:58.037Z,85
2016-03-30T00:04:14.553Z,84
2016-03-30T00:04:24.178Z,85
2016-03-30T00:04:33.353Z,84
2016-03-30T00:05:07.540Z,85
2016-03-30T00:05:16.634Z,85
2016-03-30T00:05:25.587Z,85
2016-03-30T00:05:34.511Z,85
2016-03-30T00:05:43.558Z,84
2016-03-30T00:05:53.105Z,85
2016-03-30T00:06:01.948Z,85
2016-03-30T00:06:18.105Z,85
2016-03-30T00:06:27.045Z,84
2016-03-30T00:06:36.233Z,85
2016-03-30T00:06:45.045Z,85
2016-03-30T00:06:53.998Z,85
2016-03-30T00:08:08.033Z,85
2016-03-30T00:08:17.173Z,85
2016-03-30T00:08:26.298Z,85
2016-03-30T00:08:35.254Z,85
2016-03-30T00:08:44.114Z,85
2016-03-30T00:32:28.600Z,86
2016-03-30T00:33:29.867Z,86
2016-03-30T00:33:38.961Z,86
2016-03-30T00:33:54.867Z,86
2016-03-30T00:34:03.945Z,86
2016-03-30T00:34:13.055Z,86
2016-03-30T00:34:22.008Z,85
2016-03-30T00:34:31.308Z,85
2016-03-30T00:34:47.948Z,85
2016-03-30T00:34:57.058Z,85
2016-03-30T00:36:04.342Z,86
2016-03-30T00:36:14.170Z,86
2016-03-30T00:36:30.563Z,85
2016-03-30T00:36:40.172Z,86
2016-03-30T00:36:49.735Z,86
2016-03-30T00:37:10.391Z,86
2016-03-30T00:37:19.281Z,86
2016-03-30T00:37:28.332Z,86
2016-03-30T00:37:37.473Z,86
2016-03-30T00:37:46.973Z,86
2016-03-30T00:37:56.535Z,86
2016-03-30T00:38:06.567Z,86
2016-03-30T00:38:15.395Z,86
2016-03-30T00:38:39.022Z,86
2016-03-30T00:38:48.522Z,86
2016-03-30T00:39:04.834Z,86
2016-03-30T01:08:26.415Z,87
2016-03-30T01:08:43.219Z,89
2016-03-30T01:08:52.969Z,89
2016-03-30T01:10:00.055Z,89
2016-03-30T01:10:11.258Z,89
2016-03-30T01:10:20.805Z,89
2016-03-30T01:10:31.125Z,89
2016-03-30T01:10:40.391Z,89
2016-03-30T01:10:49.813Z,89
2016-03-30T01:10:59.047Z,89
2016-03-30T01:11:08.594Z,90
2016-03-30T01:11:24.938Z,90
2016-03-30T01:11:34.229Z,89
2016-03-30T01:11:43.760Z,89
2016-03-30T02:02:49.179Z,100
2016-03-30T02:02:58.273Z,100
2016-03-30T02:03:14.633Z,100
2016-03-30T02:03:24.648Z,100
2016-03-30T02:03:33.976Z,100
2016-03-30T02:03:43.088Z,100
2016-03-30T02:03:52.541Z,100
2016-03-30T02:04:02.275Z,100
2016-03-30T02:04:11.681Z,100
2016-03-30T02:04:20.744Z,100
2016-03-30T02:04:29.916Z,100
2016-03-30T02:04:46.294Z,100
2016-03-30T02:04:55.309Z,100
2016-03-30T02:05:12.325Z,100
2016-03-30T02:05:21.528Z,100
2016-03-30T02:05:31.122Z,100
2016-03-30T02:05:40.172Z,100
2016-03-30T02:05:49.937Z,100
2016-03-30T02:06:06.844Z,100
2016-03-30T02:06:16.187Z,100
2016-03-30T02:06:26.094Z,100
2016-03-30T02:06:35.424Z,100
2016-03-30T02:06:46.424Z,100
2016-03-30T02:06:56.314Z,100
2016-03-30T02:07:05.783Z,100
2016-03-30T02:07:22.549Z,100
2016-03-30T02:07:32.393Z,100
2016-03-30T02:07:48.442Z,100
2016-03-30T02:07:57.989Z,100
2016-03-30T02:08:08.349Z,100
2016-03-30T02:08:17.958Z,100
2016-03-30T02:08:27.083Z,100
2016-03-30T02:08:36.195Z,100
2016-03-30T02:08:45.305Z,100
2016-03-30T02:08:54.430Z,100
2016-03-30T02:09:10.852Z,100
2016-03-30T02:09:27.024Z,100
2016-03-30T02:09:36.339Z,100
2016-03-30T02:09:45.464Z,100
2016-03-30T02:10:03.511Z,100
2016-03-30T02:11:12.310Z,100
2016-03-30T02:11:21.763Z,100
2016-03-30T02:11:30.904Z,100
2016-03-30T02:11:58.469Z,100
2016-03-30T02:12:08.407Z,100
2016-03-30T02:12:18.219Z,100
2016-03-30T02:12:34.846Z,100
2016-03-30T02:12:45.049Z,100
2016-03-30T02:13:01.955Z,100
2016-03-30T02:13:18.502Z,100
2016-03-30T02:13:34.772Z,100
2016-03-30T02:13:43.975Z,100
2016-03-30T02:13:53.006Z,100
2016-03-30T02:14:02.194Z,100
2016-03-30T02:14:25.819Z,100
2016-03-30T02:14:35.196Z,100
2016-03-30T02:14:44.165Z,100
2016-03-30T02:14:53.696Z,100
2016-03-30T02:15:05.555Z,100
2016-03-30T02:15:15.883Z,100
2016-03-30T02:15:24.899Z,100
2016-03-30T02:15:34.118Z,100
2016-03-30T02:15:43.526Z,100
2016-03-30T02:15:52.588Z,100
2016-03-30T02:16:02.495Z,100
2016-03-30T02:16:11.823Z,100
2016-03-30T02:16:20.885Z,100
2016-03-30T02:16:30.073Z,100
2016-03-30T02:16:39.624Z,100
2016-03-30T02:21:04.587Z,100
2016-03-30T02:21:14.181Z,100
2016-03-30T02:21:23.915Z,100
2016-03-30T02:21:32.899Z,100
2016-03-30T02:21:42.027Z,100
2016-03-30T02:21:52.309Z,100
2016-03-30T02:22:02.230Z,100
2016-03-30T02:22:12.793Z,100
2016-03-30T02:22:29.434Z,100
2016-03-30T02:22:38.515Z,100
2016-03-30T02:22:48.249Z,100
2016-03-30T02:23:04.796Z,100
2016-03-30T02:24:11.939Z,100
2016-03-30T02:24:21.110Z,100
2016-03-30T02:24:30.407Z,100
2016-03-30T02:24:39.535Z,100
2016-03-30T02:24:48.567Z,100
2016-03-30T02:25:07.317Z,100
2016-03-30T02:25:16.582Z,100
2016-03-30T02:31:12.240Z,100
2016-03-30T02:31:21.849Z,100
2016-03-30T02:31:30.834Z,100
2016-03-30T02:31:40.086Z,100
2016-03-30T02:31:49.336Z,100
2016-03-30T02:32:53.885Z,100
2016-03-30T02:33:02.854Z,100
2016-03-30T02:33:11.807Z,100
2016-03-30T02:33:20.901Z,100
2016-03-30T02:33:29.901Z,100
2016-03-30T02:34:35.528Z,100
2016-03-30T02:34:44.765Z,100
2016-03-30T02:34:54.000Z,100
2016-03-30T02:39:42.107Z,100
2016-03-30T02:39:51.669Z,100
2016-03-30T02:41:05.797Z,100
2016-03-30T02:41:22.141Z,100
2016-03-30T02:41:31.688Z,100
2016-03-30T02:41:40.769Z,100
2016-03-30T02:41:51.816Z,100
2016-03-30T02:42:00.956Z,100
2016-03-30T02:42:10.316Z,100
2016-03-30T02:42:19.300Z,100
2016-03-30T02:42:28.441Z,100
2016-03-30T02:42:38.597Z,100
2016-03-30T02:42:48.209Z,100
2016-03-30T02:42:57.241Z,100
2016-03-30T02:43:06.647Z,100
2016-03-30T02:43:16.725Z,100
2016-03-30T02:43:25.772Z,100
2016-03-30T02:43:34.897Z,100
2016-03-30T02:44:43.480Z,100
2016-03-30T02:44:52.480Z,100
2016-03-30T02:45:05.808Z,100
2016-03-30T02:45:23.558Z,100
2016-03-30T02:45:32.605Z,100
2016-03-30T02:45:49.905Z,100
2016-03-30T02:45:58.967Z,100
2016-03-30T02:46:08.686Z,100
2016-03-30T02:46:18.217Z,100
2016-03-30T02:46:27.514Z,100
2016-03-30T02:46:36.655Z,100
2016-03-30T02:46:48.001Z,100
2016-03-30T02:47:04.594Z,100
2016-03-30T02:47:13.735Z,100
2016-03-30T02:47:30.001Z,100
2016-03-30T02:47:39.063Z,100
2016-03-30T02:47:55.269Z,100
2016-03-30T02:48:04.363Z,100
2016-03-30T02:48:33.254Z,100
2016-03-30T02:48:42.271Z,100
2016-03-30T02:48:51.787Z,100
2016-03-30T02:49:08.568Z,100
2016-03-30T02:49:17.521Z,100
2016-03-30T02:49:26.740Z,100
2016-03-30T02:49:35.896Z,100
2016-03-30T02:49:45.275Z,100
2016-03-30T02:49:54.400Z,100
2016-03-30T02:50:04.650Z,100
2016-03-30T02:50:28.806Z,100
2016-03-30T02:50:38.494Z,100
2016-03-30T02:50:47.558Z,100
2016-03-30T02:50:57.183Z,100
2016-03-30T02:51:06.355Z,100
2016-03-30T02:51:15.465Z,100
2016-03-30T02:51:24.808Z,100
2016-03-30T02:51:42.030Z,100
2016-03-30T03:25:10.119Z,100
2016-03-30T03:25:19.244Z,100
2016-03-30T03:25:28.713Z,100
2016-03-30T03:25:38.260Z,100
2016-03-30T03:25:47.307Z,100
2016-03-30T03:27:02.891Z,100
2016-03-30T03:27:12.125Z,100
2016-03-30T03:27:21.250Z,100
2016-03-30T03:51:55.911Z,100
2016-03-30T03:52:12.973Z,100
2016-03-30T03:52:29.255Z,100
2016-03-30T03:52:38.770Z,100
2016-03-30T03:52:49.098Z,100
2016-03-30T03:52:58.741Z,100
2016-03-30T03:53:08.272Z,100
2016-03-30T03:53:24.882Z,100
2016-03-30T03:53:34.007Z,100
2016-03-30T03:53:43.038Z,100
2016-03-30T03:53:52.210Z,100
2016-03-30T03:54:01.275Z,100
2016-03-30T03:54:10.385Z,100
2016-03-30T03:54:19.463Z,100
2016-03-30T03:54:28.400Z,100
2016-03-30T03:54:37.541Z,100
2016-03-30T03:54:46.728Z,100
2016-03-30T03:54:55.825Z,100
2016-03-30T03:55:06.716Z,100
2016-03-30T03:55:22.919Z,100
2016-03-30T03:55:32.153Z,100
2016-03-30T03:55:48.450Z,100
2016-03-30T03:55:58.358Z,100
2016-03-30T03:56:07.483Z,100
2016-03-30T03:56:24.015Z,100
2016-03-30T03:56:33.108Z,100
2016-03-30T03:56:42.124Z,100
2016-03-30T04:01:03.497Z,100
2016-03-30T04:01:13.247Z,100
2016-03-30T04:01:29.654Z,100
2016-03-30T04:01:38.669Z,100
2016-03-30T04:01:50.247Z,100
2016-03-30T04:01:59.281Z,100
2016-03-30T04:02:08.671Z,100
2016-03-30T04:02:17.640Z,100
2016-03-30T04:02:26.781Z,100
2016-03-30T04:02:35.765Z,100
2016-03-30T04:02:44.828Z,100
2016-03-30T04:02:54.065Z,100
2016-03-30T04:03:03.502Z,100
2016-03-30T04:03:12.440Z,100
2016-03-30T04:03:21.581Z,100
2016-03-30T04:03:30.627Z,100
2016-03-30T04:03:39.862Z,100
2016-03-30T04:03:49.018Z,100
2016-03-30T04:04:05.865Z,100
2016-03-30T04:04:22.021Z,100
2016-03-30T04:04:31.052Z,100
2016-03-30T04:04:40.427Z,100
2016-03-30T04:04:49.490Z,100
2016-03-30T04:05:07.054Z,100
2016-03-30T04:05:17.195Z,100
2016-03-30T04:05:33.711Z,100
2016-03-30T04:05:42.804Z,100
2016-03-30T04:05:52.101Z,100
2016-03-30T04:06:01.151Z,100
2016-03-30T04:06:10.417Z,100
2016-03-30T04:06:26.698Z,100
2016-03-30T04:06:35.651Z,100
2016-03-30T04:06:53.920Z,100
2016-03-30T04:07:03.326Z,100
2016-03-30T04:07:12.388Z,100
2016-03-30T04:07:21.576Z,100
2016-03-30T04:07:30.623Z,100
2016-03-30T04:07:39.623Z,100
2016-03-30T04:07:48.685Z,100
2016-03-30T04:07:58.220Z,100
2016-03-30T04:08:15.016Z,100
2016-03-30T04:08:31.251Z,100
2016-03-30T04:08:40.345Z,100
2016-03-30T04:08:49.376Z,100
2016-03-30T04:08:58.472Z,100
2016-03-30T04:09:08.487Z,100
2016-03-30T04:09:17.472Z,100
2016-03-30T04:09:26.597Z,100
2016-03-30T04:09:35.597Z,100
2016-03-30T04:09:44.659Z,100
2016-03-30T04:11:03.649Z,100
2016-03-30T04:11:12.728Z,100
2016-03-30T04:11:21.946Z,100
2016-03-30T04:11:31.024Z,100
2016-03-30T04:11:40.196Z,100
2016-03-30T04:28:29.914Z,100
2016-03-30T04:28:45.930Z,100
2016-03-30T04:28:54.980Z,100
2016-03-30T04:29:04.089Z,100
2016-03-30T04:29:12.995Z,100
2016-03-30T04:29:21.933Z,100
2016-03-30T04:29:30.886Z,100
2016-03-30T04:29:39.886Z,100
2016-03-30T04:29:48.730Z,100
2016-03-30T04:29:57.622Z,100
2016-03-30T04:46:39.025Z,100
2016-03-30T04:46:55.684Z,100
2016-03-30T04:47:11.590Z,100
2016-03-30T04:47:27.668Z,100
2016-03-30T04:47:36.825Z,100
2016-03-30T04:47:45.731Z,100
2016-03-30T04:47:54.640Z,100
2016-03-30T04:48:04.265Z,100
2016-03-30T04:48:13.937Z,100
2016-03-30T04:48:22.812Z,100
2016-03-30T04:48:31.906Z,100
2016-03-30T04:48:40.828Z,100
2016-03-30T04:48:50.531Z,100
2016-03-30T04:49:00.080Z,100
2016-03-30T04:51:00.022Z,100
2016-03-30T04:51:09.319Z,100
2016-03-30T04:51:18.725Z,100
2016-03-30T04:51:27.694Z,100
2016-03-30T04:51:36.835Z,100
2016-03-30T04:51:45.881Z,100
2016-03-30T04:51:54.869Z,100
2016-03-30T04:52:04.072Z,100
2016-03-30T04:52:13.056Z,100
2016-03-30T04:52:22.056Z,100
2016-03-30T04:52:38.838Z,100
2016-03-30T04:52:47.759Z,100
2016-03-30T04:52:56.841Z,100
2016-03-30T04:53:05.794Z,100
2016-03-30T04:53:21.950Z,100
2016-03-30T04:53:30.841Z,100
2016-03-30T04:53:40.403Z,100
2016-03-30T04:53:49.325Z,100
2016-03-30T04:53:58.577Z,100
2016-03-30T04:54:07.530Z,100
2016-03-30T04:54:16.764Z,100
2016-03-30T04:54:25.671Z,100
2016-03-30T04:54:34.577Z,100
2016-03-30T04:54:51.514Z,100
2016-03-30T04:55:08.611Z,100
2016-03-30T04:55:17.564Z,100
2016-03-30T04:56:04.676Z,100
2016-03-30T04:56:21.504Z,100
2016-03-30T04:56:30.629Z,100
2016-03-30T04:56:39.676Z,100
2016-03-30T05:13:50.285Z,100
2016-03-30T05:13:59.991Z,100
2016-03-30T05:14:10.882Z,100
2016-03-30T05:14:21.554Z,100
2016-03-30T05:15:28.806Z,100
2016-03-30T05:15:40.103Z,100
2016-03-30T05:15:49.868Z,100
2016-03-30T05:16:00.699Z,100
2016-03-30T05:16:12.793Z,100
2016-03-30T05:16:23.934Z,100
2016-03-30T05:16:34.856Z,100
2016-03-30T05:50:10.790Z,98
2016-03-30T05:50:21.587Z,98
2016-03-30T05:50:32.244Z,98
2016-03-30T05:50:42.103Z,98
2016-03-30T05:50:52.431Z,98
2016-03-30T05:51:03.027Z,98
2016-03-30T05:51:14.496Z,98
2016-03-30T05:51:26.074Z,98
2016-03-30T05:51:38.464Z,98
2016-03-30T05:51:58.562Z,98
2016-03-30T05:52:09.921Z,98
2016-03-30T05:52:20.484Z,98
2016-03-30T05:52:30.796Z,97
2016-03-30T05:52:41.921Z,97
2016-03-30T05:52:52.765Z,97
2016-03-30T05:53:06.095Z,98
2016-03-30T05:53:15.830Z,98
2016-03-30T05:53:27.939Z,97
2016-03-30T05:53:39.970Z,97
2016-03-30T05:53:50.517Z,97
2016-03-30T05:54:00.817Z,97
2016-03-30T05:54:20.286Z,97
2016-03-30T05:54:38.692Z,97
2016-03-30T05:54:48.723Z,97
2016-03-30T05:55:08.320Z,98
2016-03-30T05:55:18.820Z,97
2016-03-30T05:55:29.523Z,97
2016-03-30T05:55:40.648Z,97
2016-03-30T05:55:52.008Z,97
2016-03-30T05:56:02.916Z,97
2016-03-30T05:56:13.744Z,97
2016-03-30T05:56:28.510Z,96
2016-03-30T05:56:38.572Z,97
2016-03-30T05:56:50.760Z,97
2016-03-30T05:57:02.278Z,97
2016-03-30T05:57:20.622Z,97
2016-03-30T05:57:31.013Z,97
2016-03-30T05:57:41.294Z,97
2016-03-30T05:57:59.671Z,97
2016-03-30T05:58:10.733Z,96
2016-03-30T05:58:28.608Z,96
2016-03-30T05:58:38.561Z,96
2016-03-30T05:58:54.924Z,97
2016-03-30T05:59:15.861Z,97
2016-03-30T05:59:33.205Z,97
2016-03-30T05:59:51.439Z,96
2016-03-30T06:00:08.786Z,97
2016-03-30T06:00:20.521Z,97
2016-03-30T06:00:32.661Z,96
2016-03-30T06:00:43.567Z,96
2016-03-30T06:01:03.211Z,96
2016-03-30T06:01:15.008Z,96
2016-03-30T06:01:25.945Z,96
2016-03-30T06:01:38.649Z,96
2016-03-30T06:01:50.649Z,96
2016-03-30T06:02:09.119Z,96
2016-03-30T06:02:20.447Z,96
2016-03-30T06:02:30.807Z,96
2016-03-30T06:02:41.885Z,96
2016-03-30T06:02:53.154Z,96
2016-03-30T06:03:04.607Z,96
2016-03-30T06:03:15.247Z,96
2016-03-30T06:03:28.779Z,96
2016-03-30T06:03:45.825Z,96
2016-03-30T06:03:56.327Z,95
2016-03-30T06:04:14.999Z,95
2016-03-30T06:04:26.031Z,95
2016-03-30T06:04:38.140Z,95
2016-03-30T06:04:48.624Z,95
2016-03-30T06:04:58.705Z,95
2016-03-30T06:05:12.127Z,94
2016-03-30T06:05:30.362Z,94
2016-03-30T06:05:40.924Z,95
2016-03-30T06:05:51.768Z,95
2016-03-30T06:06:10.396Z,94
2016-03-30T06:06:19.943Z,95
2016-03-30T06:06:32.115Z,95
2016-03-30T06:06:43.458Z,94
2016-03-30T06:07:44.243Z,94
2016-03-30T06:07:54.136Z,95
2016-03-30T06:08:05.105Z,95
2016-03-30T06:08:24.886Z,95
2016-03-30T06:08:36.230Z,95
2016-03-30T06:08:45.761Z,95
2016-03-30T06:08:55.576Z,96
2016-03-30T06:09:06.263Z,95
2016-03-30T06:09:24.716Z,95
2016-03-30T06:09:34.873Z,95
2016-03-30T06:09:44.873Z,95
2016-03-30T07:21:00.910Z,84
2016-03-30T07:21:12.926Z,84
2016-03-30T07:21:24.020Z,84
2016-03-30T07:21:34.098Z,83
2016-03-30T07:39:21.850Z,81
2016-03-30T07:39:32.397Z,81
2016-03-30T07:39:41.725Z,82
2016-03-30T07:39:52.163Z,83
2016-03-30T07:40:02.712Z,82
2016-03-30T10:05:19.377Z,97
2016-03-30T10:05:30.549Z,96
2016-03-30T10:05:40.927Z,97
2016-03-30T10:05:51.442Z,97
2016-03-30T10:06:03.067Z,98
2016-03-30T10:06:13.755Z,99
2016-03-30T10:06:24.395Z,98
2016-03-30T10:06:34.833Z,98
2016-03-30T10:06:46.477Z,98
2016-03-30T10:06:56.570Z,97
2016-03-30T10:07:15.867Z,96
2016-03-30T10:07:33.008Z,98
2016-03-30T10:07:44.042Z,97
2016-03-30T10:07:59.292Z,97
2016-03-30T10:08:12.230Z,97
2016-03-30T10:08:22.464Z,97
2016-03-30T10:08:32.589Z,98
2016-03-30T10:08:42.373Z,98
2016-03-30T10:08:52.951Z,98
2016-03-30T10:09:06.217Z,97
2016-03-30T10:09:18.826Z,97
2016-03-30T10:09:28.654Z,96
2016-03-30T10:09:39.297Z,95
2016-03-30T10:09:48.766Z,95
2016-03-30T10:09:58.860Z,96
2016-03-30T10:10:13.688Z,96
2016-03-30T10:10:24.594Z,96
2016-03-30T10:10:34.422Z,96
2016-03-30T10:10:44.268Z,96
2016-03-30T10:10:54.268Z,97
2016-03-30T10:11:05.018Z,98
2016-03-30T10:11:16.096Z,98
2016-03-30T10:11:26.096Z,98
2016-03-30T10:11:38.427Z,98
2016-03-30T10:11:50.115Z,98
2016-03-30T10:12:02.802Z,97
2016-03-30T10:13:05.786Z,98
2016-03-30T10:14:03.529Z,96
2016-03-30T10:14:20.873Z,95
2016-03-30T10:14:38.834Z,96
2016-03-30T10:14:50.615Z,96
2016-03-30T10:15:01.100Z,95
2016-03-30T11:08:05.872Z,83
2016-03-30T11:08:18.153Z,83
2016-03-30T11:08:33.747Z,82
2016-03-30T11:08:44.313Z,82
2016-03-30T11:08:55.328Z,81
2016-03-30T11:09:09.203Z,80
2016-03-30T11:09:18.891Z,79
2016-03-30T11:09:35.047Z,78
2016-03-30T11:10:02.815Z,79
2016-03-30T11:26:05.827Z,77
2016-03-30T12:29:45.534Z,56
2016-03-30T12:29:57.034Z,55
2016-03-30T12:31:11.569Z,56
2016-03-30T12:31:31.819Z,55
2016-03-30T12:31:49.336Z,55
2016-03-30T12:48:04.520Z,59
2016-03-30T12:48:23.379Z,59
2016-03-30T12:48:34.817Z,59
2016-03-30T12:48:52.523Z,59
2016-03-30T12:49:04.335Z,58
2016-03-30T12:49:14.179Z,58
2016-03-30T12:49:26.414Z,58
2016-03-30T12:49:43.635Z,58
2016-03-30T12:49:59.245Z,58
2016-03-30T14:18:46.544Z,52
2016-03-30T14:19:03.078Z,51
2016-03-30T14:19:15.625Z,50
2016-03-30T14:19:31.063Z,51
2016-03-30T14:19:41.344Z,51
2016-03-30T14:19:53.784Z,51
2016-03-30T14:21:02.427Z,51
2016-03-30T14:21:15.630Z,51
2016-03-30T14:36:51.220Z,54
2016-03-30T14:37:09.658Z,54
2016-03-30T14:37:20.580Z,54
2016-03-30T15:22:03.747Z,56
2016-03-30T15:22:16.404Z,56
2016-03-30T15:22:34.685Z,56
2016-03-30T15:23:41.812Z,56
2016-03-30T15:23:53.190Z,56
2016-03-30T15:24:09.721Z,56
2016-03-30T15:24:21.346Z,56
2016-03-30T15:24:31.237Z,56
2016-03-30T15:24:40.815Z,56
2016-03-30T15:24:52.927Z,56
2016-03-30T15:25:06.568Z,56
2016-03-30T15:25:26.240Z,56
2016-03-30T15:25:37.115Z,57
2016-03-30T15:25:47.146Z,57
2016-03-30T15:25:59.211Z,57
2016-03-30T15:26:10.867Z,57
2016-03-30T15:26:22.898Z,56
2016-03-30T15:26:34.851Z,57
2016-03-30T15:31:22.443Z,54
2016-03-30T15:31:39.537Z,54
2016-03-30T15:31:49.490Z,54
2016-03-30T15:32:04.009Z,54
2016-03-30T15:32:15.118Z,54
2016-03-30T15:32:24.806Z,54
2016-03-30T15:32:34.899Z,54
2016-03-30T15:32:44.868Z,54
2016-03-30T15:33:45.058Z,54
2016-03-30T15:33:54.733Z,54
2016-03-30T15:34:05.889Z,54
2016-03-30T15:34:17.108Z,54
2016-03-30T15:34:27.014Z,54
2016-03-30T15:34:36.389Z,54
2016-03-30T15:34:46.686Z,54
2016-03-30T15:34:58.939Z,54
2016-03-30T15:58:34.656Z,63
2016-03-30T16:34:52.413Z,61
2016-03-30T16:35:08.882Z,60
2016-03-30T16:35:24.163Z,60
2016-03-30T16:35:34.944Z,60
2016-03-30T16:35:44.976Z,60
2016-03-30T16:35:54.901Z,60
2016-03-30T16:37:03.590Z,61
2016-03-30T16:37:14.715Z,61
2016-03-30T16:37:25.903Z,61
2016-03-30T16:37:36.418Z,61
2016-03-30T16:37:46.996Z,61
2016-03-30T16:37:57.312Z,61
2016-03-30T16:38:14.046Z,61
2016-03-30T16:38:25.124Z,61
2016-03-30T16:38:35.984Z,61
2016-03-30T16:38:49.609Z,61
2016-03-30T16:38:59.768Z,61
2016-03-30T16:39:12.190Z,61
2016-03-30T16:39:23.690Z,61
2016-03-30T16:39:34.659Z,61
2016-03-30T16:39:44.877Z,61
2016-03-30T16:40:49.707Z,62
2016-03-30T16:41:00.382Z,62
2016-03-30T16:41:12.257Z,61
2016-03-30T16:41:23.414Z,61
2016-03-30T16:41:34.445Z,61
2016-03-30T16:42:41.151Z,61
2016-03-30T16:42:59.637Z,62
2016-03-30T16:43:14.481Z,62
2016-03-30T16:43:49.403Z,61
2016-03-30T16:44:02.031Z,62
2016-03-30T16:44:16.312Z,62
2016-03-30T16:44:29.672Z,61
2016-03-30T16:44:40.781Z,61
2016-03-30T16:53:05.508Z,59
2016-03-30T16:53:15.227Z,59
2016-03-30T16:53:26.305Z,59
2016-03-30T16:53:37.102Z,59
2016-03-30T16:53:50.414Z,59
2016-03-30T16:54:02.511Z,59
2016-03-30T16:54:14.933Z,59
2016-03-30T16:54:24.449Z,59
2016-03-30T16:54:34.839Z,59
2016-03-30T16:54:45.558Z,59
2016-03-30T16:54:56.389Z,59
2016-03-30T16:56:04.110Z,59
2016-03-30T18:14:43.544Z,67
2016-03-30T18:14:54.029Z,68
2016-03-30T18:32:42.936Z,69
2016-03-30T18:32:53.483Z,71
2016-03-30T18:33:05.767Z,71
2016-03-30T18:33:19.705Z,71
2016-03-30T18:33:29.564Z,71
2016-03-30T18:33:39.877Z,71
2016-03-30T18:33:49.845Z,71
2016-03-30T18:34:06.519Z,71
2016-03-30T18:34:17.129Z,71
2016-03-30T18:34:35.254Z,71
2016-03-30T18:34:45.051Z,71
2016-03-30T18:34:55.394Z,71
2016-03-30T20:03:28.717Z,77
2016-03-30T20:03:41.935Z,77
2016-03-30T20:03:53.670Z,77
2016-03-30T20:04:15.187Z,77
2016-03-30T20:04:25.250Z,76
2016-03-30T20:04:37.062Z,77
2016-03-30T20:04:49.578Z,77
2016-03-30T20:05:05.625Z,77
2016-03-30T20:06:23.240Z,77
2016-03-30T20:06:35.225Z,77
2016-03-30T20:57:53.413Z,80
2016-03-30T20:58:11.367Z,80
2016-03-30T20:58:22.273Z,80
2016-03-30T20:58:33.230Z,80
2016-03-30T20:58:43.339Z,79
2016-03-30T20:59:03.230Z,79
2016-03-30T20:59:13.761Z,79
2016-03-30T20:59:23.839Z,79
2016-03-30T20:59:35.217Z,80
2016-03-30T20:59:44.577Z,80
2016-03-30T21:00:10.514Z,79
2016-03-30T21:00:21.702Z,79
2016-03-30T21:00:35.860Z,79
2016-03-30T21:00:47.110Z,79
2016-03-30T21:00:59.563Z,79
2016-03-30T21:01:11.751Z,79
2016-03-30T21:01:22.251Z,79
2016-03-30T21:01:32.879Z,79
2016-03-30T21:02:42.802Z,79
2016-03-30T21:02:52.943Z,79
2016-03-30T21:03:03.896Z,79
2016-03-30T21:03:23.365Z,79
2016-03-30T21:03:33.962Z,79
2016-03-30T21:16:05.167Z,80
2016-03-30T21:16:15.151Z,80
2016-03-30T21:16:26.698Z,80
2016-03-30T21:16:36.776Z,80
2016-03-30T21:34:13.295Z,81
2016-03-30T21:34:23.154Z,81
2016-03-30T21:34:33.295Z,81
2016-03-30T21:34:43.279Z,81
2016-03-30T21:34:52.812Z,81
2016-03-30T21:35:07.203Z,81
2016-03-30T21:35:19.687Z,81
2016-03-30T21:35:32.672Z,81
2016-03-30T21:35:44.844Z,81
2016-03-30T21:35:56.518Z,81
2016-03-30T21:36:09.393Z,81
2016-03-30T21:36:26.222Z,81
2016-03-30T21:36:45.925Z,81
2016-03-30T21:36:56.568Z,81
2016-03-30T21:37:07.678Z,82
2016-03-30T21:37:19.787Z,81
2016-03-30T21:37:29.521Z,82
2016-03-30T21:37:40.959Z,82
2016-03-30T21:37:59.570Z,82
2016-03-30T21:38:11.867Z,82
2016-03-30T21:38:22.945Z,82
2016-03-30T21:38:34.070Z,82
2016-03-30T21:38:45.117Z,82
2016-03-30T21:38:55.917Z,82
2016-03-30T21:39:59.997Z,81
2016-03-30T21:41:15.891Z,81
2016-03-30T21:41:26.735Z,82
2016-03-30T21:41:39.125Z,82
2016-03-30T21:41:51.691Z,82
2016-03-30T21:42:05.363Z,82
2016-03-30T21:42:15.066Z,82
2016-03-30T21:42:24.831Z,82
2016-03-30T21:42:39.441Z,82
2016-03-30T21:42:51.631Z,82
2016-03-30T21:43:04.428Z,82
2016-03-30T21:43:24.366Z,82
2016-03-30T21:43:35.334Z,82
2016-03-30T21:43:44.819Z,82
2016-03-30T21:43:55.039Z,82
2016-03-30T21:46:01.749Z,82
2016-03-30T21:46:13.327Z,81
2016-03-30T21:46:26.733Z,81
2016-03-30T21:46:39.311Z,82
2016-03-30T23:50:52.761Z,86
2016-03-30T23:51:03.996Z,87
2016-03-30T23:51:13.886Z,87
2016-03-30T23:51:24.996Z,87
2016-03-30T23:51:42.886Z,87
2016-03-30T23:52:01.888Z,87
2016-03-30T23:52:11.623Z,87
2016-03-30T23:52:21.576Z,87
2016-03-30T23:52:31.748Z,87
2016-03-30T23:52:54.985Z,87
2016-03-30T23:53:05.188Z,87
2016-03-30T23:53:14.548Z,87
2016-03-30T23:53:26.688Z,87
2016-03-30T23:53:36.641Z,87
2016-03-30T23:53:49.063Z,87
2016-03-30T23:53:59.660Z,87
2016-03-30T23:54:17.066Z,87
2016-03-30T23:54:27.379Z,87
2016-03-30T23:54:36.801Z,87
2016-03-30T23:54:54.631Z,87
